Volk Field, Wisconsin
Current Conditions -  °F | °C
As of 11:58 AM on Sunday 21 Dec 2014 (Local Time) from KVOK Reporting Station
Haze Haze  
Wind Chill: 27°   Ceiling: 600
Heat Index: 34°   Visibility: 4mi
Dew Point: 34°   Wind: 8mph
Humidity: 100%   Direction: 150°SSE
Pressure: 29.97"   Gusts: NA
Location:  43.93°N, 90.27°W
Report Text: KVOK 211758Z 15007KT 4SM BR OVC006 01/01 A2997 RMK AO2A SLP162 57022
Loading
Personal Weather Stations






























Interactive Weather Map New forecast layout! Learn more

10-Day Weather Forecast

Advertisements
Track Severe Weather on mobile